sensor_id;sensor_type;location;lat;lon;timestamp;pressure;altitude;pressure_sealevel;temperature;humidity
43770;BME280;6597;52.218;9.882;2023-03-23T00:01:53;99666.34;;;12.45;74.17
43770;BME280;6597;52.218;9.882;2023-03-23T00:04:22;99671.81;;;12.42;74.72
43770;BME280;6597;52.218;9.882;2023-03-23T00:06:52;99673.88;;;12.37;74.68
43770;BME280;6597;52.218;9.882;2023-03-23T00:09:19;99667.75;;;12.36;74.95
43770;BME280;6597;52.218;9.882;2023-03-23T00:11:49;99664.34;;;12.34;75.65
43770;BME280;6597;52.218;9.882;2023-03-23T00:14:17;99671.41;;;12.34;76.42
43770;BME280;6597;52.218;9.882;2023-03-23T00:16:48;99671.59;;;12.31;77.00
43770;BME280;6597;52.218;9.882;2023-03-23T00:19:15;99662.00;;;12.30;78.04
43770;BME280;6597;52.218;9.882;2023-03-23T00:21:45;99658.31;;;12.32;78.19
43770;BME280;6597;52.218;9.882;2023-03-23T00:24:13;99665.00;;;12.24;80.85
43770;BME280;6597;52.218;9.882;2023-03-23T00:26:41;99660.06;;;12.03;84.54
43770;BME280;6597;52.218;9.882;2023-03-23T00:29:12;99660.47;;;11.81;86.11
43770;BME280;6597;52.218;9.882;2023-03-23T00:31:40;99660.63;;;11.63;87.85
43770;BME280;6597;52.218;9.882;2023-03-23T00:34:06;99661.31;;;11.50;89.15
43770;BME280;6597;52.218;9.882;2023-03-23T00:36:34;99659.31;;;11.40;90.73
43770;BME280;6597;52.218;9.882;2023-03-23T00:39:10;99654.44;;;11.32;91.70
43770;BME280;6597;52.218;9.882;2023-03-23T00:41:37;99654.63;;;11.29;91.54
43770;BME280;6597;52.218;9.882;2023-03-23T00:46:34;99652.75;;;11.31;90.61
43770;BME280;6597;52.218;9.882;2023-03-23T00:49:11;99643.94;;;11.32;90.24
43770;BME280;6597;52.218;9.882;2023-03-23T00:51:38;99650.31;;;11.28;90.87
43770;BME280;6597;52.218;9.882;2023-03-23T00:54:05;99638.00;;;11.29;90.44
43770;BME280;6597;52.218;9.882;2023-03-23T00:56:33;99641.50;;;11.29;90.81
43770;BME280;6597;52.218;9.882;2023-03-23T00:59:00;99644.78;;;11.33;90.36
43770;BME280;6597;52.218;9.882;2023-03-23T01:01:27;99641.31;;;11.32;90.45
43770;BME280;6597;52.218;9.882;2023-03-23T01:03:57;99637.84;;;11.32;91.35
43770;BME280;6597;52.218;9.882;2023-03-23T01:06:26;99643.28;;;11.29;91.82
43770;BME280;6597;52.218;9.882;2023-03-23T01:08:53;99636.59;;;11.23;92.20
43770;BME280;6597;52.218;9.882;2023-03-23T01:11:24;99636.09;;;11.16;94.28
43770;BME280;6597;52.218;9.882;2023-03-23T01:13:52;99637.53;;;11.06;96.02
43770;BME280;6597;52.218;9.882;2023-03-23T01:16:19;99638.25;;;10.93;97.42
43770;BME280;6597;52.218;9.882;2023-03-23T01:18:46;99626.50;;;10.84;97.68
43770;BME280;6597;52.218;9.882;2023-03-23T01:21:15;99628.19;;;10.85;98.23
43770;BME280;6597;52.218;9.882;2023-03-23T01:23:43;99626.50;;;10.84;98.12
43770;BME280;6597;52.218;9.882;2023-03-23T01:26:11;99623.00;;;10.83;98.96
43770;BME280;6597;52.218;9.882;2023-03-23T01:28:38;99618.59;;;10.84;99.07
43770;BME280;6597;52.218;9.882;2023-03-23T01:31:08;99610.72;;;10.84;99.09
43770;BME280;6597;52.218;9.882;2023-03-23T01:33:38;99608.03;;;10.85;99.48
43770;BME280;6597;52.218;9.882;2023-03-23T01:36:08;99608.78;;;10.87;99.19
43770;BME280;6597;52.218;9.882;2023-03-23T01:38:36;99599.97;;;10.88;99.23
43770;BME280;6597;52.218;9.882;2023-03-23T01:41:04;99606.00;;;10.90;98.46
43770;BME280;6597;52.218;9.882;2023-03-23T01:43:31;99603.53;;;10.87;98.21
43770;BME280;6597;52.218;9.882;2023-03-23T01:45:58;99609.38;;;10.93;97.71
43770;BME280;6597;52.218;9.882;2023-03-23T01:48:28;99607.50;;;10.95;97.84
43770;BME280;6597;52.218;9.882;2023-03-23T01:50:58;99595.16;;;10.97;97.73
43770;BME280;6597;52.218;9.882;2023-03-23T01:53:30;99594.31;;;10.96;97.72
43770;BME280;6597;52.218;9.882;2023-03-23T01:56:00;99592.69;;;10.94;97.97
43770;BME280;6597;52.218;9.882;2023-03-23T01:58:31;99599.81;;;10.91;98.49
43770;BME280;6597;52.218;9.882;2023-03-23T02:01:01;99597.59;;;10.84;99.70
43770;BME280;6597;52.218;9.882;2023-03-23T02:03:31;99599.94;;;10.73;100.00
43770;BME280;6597;52.218;9.882;2023-03-23T02:05:58;99596.06;;;10.64;100.00
43770;BME280;6597;52.218;9.882;2023-03-23T02:08:35;99598.06;;;10.59;100.00
43770;BME280;6597;52.218;9.882;2023-03-23T02:11:11;99608.91;;;10.53;100.00
43770;BME280;6597;52.218;9.882;2023-03-23T02:13:38;99602.22;;;10.47;100.00
43770;BME280;6597;52.218;9.882;2023-03-23T02:16:09;99616.34;;;10.45;100.00
43770;BME280;6597;52.218;9.882;2023-03-23T02:18:48;99604.84;;;10.47;100.00
43770;BME280;6597;52.218;9.882;2023-03-23T02:21:55;99595.19;;;10.48;100.00
43770;BME280;6597;52.218;9.882;2023-03-23T02:24:52;99584.38;;;10.54;100.00
43770;BME280;6597;52.218;9.882;2023-03-23T02:27:35;99588.50;;;10.58;100.00
43770;BME280;6597;52.218;9.882;2023-03-23T02:30:13;99582.06;;;10.64;100.00
43770;BME280;6597;52.218;9.882;2023-03-23T02:33:09;99583.53;;;10.69;100.00
43770;BME280;6597;52.218;9.882;2023-03-23T02:35:40;99579.03;;;10.71;100.00
43770;BME280;6597;52.218;9.882;2023-03-23T02:38:11;99585.28;;;10.69;100.00
43770;BME280;6597;52.218;9.882;2023-03-23T02:40:42;99583.53;;;10.69;100.00
43770;BME280;6597;52.218;9.882;2023-03-23T02:43:15;99580.72;;;10.72;100.00
43770;BME280;6597;52.218;9.882;2023-03-23T02:45:44;99583.34;;;10.72;100.00
43770;BME280;6597;52.218;9.882;2023-03-23T02:48:14;99585.84;;;10.75;100.00
43770;BME280;6597;52.218;9.882;2023-03-23T02:50:44;99576.28;;;10.74;100.00
43770;BME280;6597;52.218;9.882;2023-03-23T02:53:13;99576.50;;;10.70;100.00
43770;BME280;6597;52.218;9.882;2023-03-23T02:55:43;99571.31;;;10.68;100.00
43770;BME280;6597;52.218;9.882;2023-03-23T02:58:15;99578.53;;;10.65;100.00
43770;BME280;6597;52.218;9.882;2023-03-23T03:00:43;99553.38;;;10.60;100.00
43770;BME280;6597;52.218;9.882;2023-03-23T03:03:14;99563.13;;;10.58;100.00
43770;BME280;6597;52.218;9.882;2023-03-23T03:05:51;99559.06;;;10.53;100.00
43770;BME280;6597;52.218;9.882;2023-03-23T03:08:28;99553.03;;;10.51;100.00
43770;BME280;6597;52.218;9.882;2023-03-23T03:10:59;99557.53;;;10.49;100.00
43770;BME280;6597;52.218;9.882;2023-03-23T03:13:35;99551.44;;;10.48;100.00
43770;BME280;6597;52.218;9.882;2023-03-23T03:16:09;99537.38;;;10.49;100.00
43770;BME280;6597;52.218;9.882;2023-03-23T03:18:45;99543.13;;;10.56;100.00
43770;BME280;6597;52.218;9.882;2023-03-23T03:21:15;99537.13;;;10.54;100.00
43770;BME280;6597;52.218;9.882;2023-03-23T03:23:46;99536.38;;;10.52;100.00
43770;BME280;6597;52.218;9.882;2023-03-23T03:26:16;99556.69;;;10.48;100.00
43770;BME280;6597;52.218;9.882;2023-03-23T03:28:50;99545.34;;;10.48;100.00
43770;BME280;6597;52.218;9.882;2023-03-23T03:31:21;99545.41;;;10.46;100.00
43770;BME280;6597;52.218;9.882;2023-03-23T03:33:50;99550.22;;;10.38;100.00
43770;BME280;6597;52.218;9.882;2023-03-23T03:36:19;99552.31;;;10.32;100.00
43770;BME280;6597;52.218;9.882;2023-03-23T03:38:49;99559.59;;;10.26;100.00
43770;BME280;6597;52.218;9.882;2023-03-23T03:41:18;99559.75;;;10.23;100.00
43770;BME280;6597;52.218;9.882;2023-03-23T03:43:46;99563.50;;;10.18;100.00
43770;BME280;6597;52.218;9.882;2023-03-23T03:46:12;99564.69;;;10.12;100.00
43770;BME280;6597;52.218;9.882;2023-03-23T03:48:39;99564.22;;;10.04;100.00
43770;BME280;6597;52.218;9.882;2023-03-23T03:51:07;99558.59;;;9.94;100.00
43770;BME280;6597;52.218;9.882;2023-03-23T03:53:36;99562.41;;;9.89;100.00
43770;BME280;6597;52.218;9.882;2023-03-23T03:56:03;99546.06;;;9.84;100.00
43770;BME280;6597;52.218;9.882;2023-03-23T03:58:36;99527.03;;;9.80;100.00
43770;BME280;6597;52.218;9.882;2023-03-23T04:01:09;99539.03;;;9.84;100.00
43770;BME280;6597;52.218;9.882;2023-03-23T04:03:38;99534.56;;;9.86;100.00
43770;BME280;6597;52.218;9.882;2023-03-23T04:06:11;99526.72;;;9.86;100.00
43770;BME280;6597;52.218;9.882;2023-03-23T04:08:39;99520.63;;;9.86;100.00
43770;BME280;6597;52.218;9.882;2023-03-23T04:11:07;99526.63;;;9.88;100.00
43770;BME280;6597;52.218;9.882;2023-03-23T04:13:33;99521.22;;;9.91;100.00
43770;BME280;6597;52.218;9.882;2023-03-23T04:16:09;99511.41;;;9.94;100.00
43770;BME280;6597;52.218;9.882;2023-03-23T04:18:37;99510.16;;;10.02;100.00
43770;BME280;6597;52.218;9.882;2023-03-23T04:21:05;99514.03;;;10.12;100.00
43770;BME280;6597;52.218;9.882;2023-03-23T04:23:35;99512.84;;;10.17;100.00
43770;BME280;6597;52.218;9.882;2023-03-23T04:26:03;99523.97;;;10.22;100.00
43770;BME280;6597;52.218;9.882;2023-03-23T04:28:40;99516.69;;;10.27;100.00
43770;BME280;6597;52.218;9.882;2023-03-23T04:31:25;99528.63;;;10.33;100.00
43770;BME280;6597;52.218;9.882;2023-03-23T04:33:59;99524.22;;;10.34;100.00
43770;BME280;6597;52.218;9.882;2023-03-23T04:36:30;99524.06;;;10.37;100.00
43770;BME280;6597;52.218;9.882;2023-03-23T04:39:04;99514.31;;;10.39;100.00
43770;BME280;6597;52.218;9.882;2023-03-23T04:41:33;99514.25;;;10.40;100.00
43770;BME280;6597;52.218;9.882;2023-03-23T04:44:18;99492.34;;;10.41;100.00
43770;BME280;6597;52.218;9.882;2023-03-23T04:46:53;99495.03;;;10.40;100.00
43770;BME280;6597;52.218;9.882;2023-03-23T04:49:21;99503.91;;;10.37;100.00
43770;BME280;6597;52.218;9.882;2023-03-23T04:51:53;99499.78;;;10.33;100.00
43770;BME280;6597;52.218;9.882;2023-03-23T04:54:39;99486.75;;;10.32;100.00
43770;BME280;6597;52.218;9.882;2023-03-23T04:57:06;99478.78;;;10.33;100.00
43770;BME280;6597;52.218;9.882;2023-03-23T04:59:37;99476.94;;;10.35;100.00
43770;BME280;6597;52.218;9.882;2023-03-23T05:02:09;99461.94;;;10.37;100.00
43770;BME280;6597;52.218;9.882;2023-03-23T05:04:36;99465.94;;;10.44;100.00
43770;BME280;6597;52.218;9.882;2023-03-23T05:07:10;99442.25;;;10.46;100.00
43770;BME280;6597;52.218;9.882;2023-03-23T05:09:46;99441.31;;;10.47;100.00
43770;BME280;6597;52.218;9.882;2023-03-23T05:12:15;99443.94;;;10.47;100.00
43770;BME280;6597;52.218;9.882;2023-03-23T05:14:53;99462.31;;;10.47;100.00
43770;BME280;6597;52.218;9.882;2023-03-23T05:17:24;99459.34;;;10.53;100.00
43770;BME280;6597;52.218;9.882;2023-03-23T05:19:53;99464.41;;;10.56;100.00
43770;BME280;6597;52.218;9.882;2023-03-23T05:22:33;99457.56;;;10.53;100.00
43770;BME280;6597;52.218;9.882;2023-03-23T05:25:05;99459.84;;;10.59;100.00
43770;BME280;6597;52.218;9.882;2023-03-23T05:27:35;99459.00;;;10.59;100.00
43770;BME280;6597;52.218;9.882;2023-03-23T05:30:11;99463.13;;;10.63;100.00
43770;BME280;6597;52.218;9.882;2023-03-23T05:32:41;99469.16;;;10.65;99.67
43770;BME280;6597;52.218;9.882;2023-03-23T05:35:25;99468.22;;;10.66;99.27
43770;BME280;6597;52.218;9.882;2023-03-23T05:37:52;99473.47;;;10.66;98.75
43770;BME280;6597;52.218;9.882;2023-03-23T05:40:22;99477.03;;;10.65;99.07
43770;BME280;6597;52.218;9.882;2023-03-23T05:42:56;99481.34;;;10.66;98.07
43770;BME280;6597;52.218;9.882;2023-03-23T05:45:46;99478.44;;;10.71;97.75
43770;BME280;6597;52.218;9.882;2023-03-23T05:48:13;99484.72;;;10.68;97.37
43770;BME280;6597;52.218;9.882;2023-03-23T05:50:39;99493.59;;;10.66;98.50
43770;BME280;6597;52.218;9.882;2023-03-23T05:53:06;99510.28;;;10.65;98.59
43770;BME280;6597;52.218;9.882;2023-03-23T05:55:37;99497.09;;;10.66;98.81
43770;BME280;6597;52.218;9.882;2023-03-23T05:58:19;99500.72;;;10.64;99.05
43770;BME280;6597;52.218;9.882;2023-03-23T06:00:46;99502.41;;;10.65;99.31
43770;BME280;6597;52.218;9.882;2023-03-23T06:03:21;99508.34;;;10.68;98.08
43770;BME280;6597;52.218;9.882;2023-03-23T06:05:56;99506.66;;;10.67;99.34
43770;BME280;6597;52.218;9.882;2023-03-23T06:08:30;99498.78;;;10.67;99.68
43770;BME280;6597;52.218;9.882;2023-03-23T06:10:58;99510.72;;;10.73;99.54
43770;BME280;6597;52.218;9.882;2023-03-23T06:13:26;99494.72;;;10.77;98.99
43770;BME280;6597;52.218;9.882;2023-03-23T06:15:59;99491.00;;;10.81;99.38
43770;BME280;6597;52.218;9.882;2023-03-23T06:19:04;99487.25;;;10.85;99.21
43770;BME280;6597;52.218;9.882;2023-03-23T06:21:33;99475.75;;;10.88;98.51
43770;BME280;6597;52.218;9.882;2023-03-23T06:24:17;99482.16;;;10.98;98.13
43770;BME280;6597;52.218;9.882;2023-03-23T06:26:45;99487.03;;;11.04;98.32
43770;BME280;6597;52.218;9.882;2023-03-23T06:29:16;99480.81;;;11.07;97.65
43770;BME280;6597;52.218;9.882;2023-03-23T06:31:51;99472.47;;;11.14;98.11
43770;BME280;6597;52.218;9.882;2023-03-23T06:34:20;99483.66;;;11.18;96.73
43770;BME280;6597;52.218;9.882;2023-03-23T06:37:09;99474.91;;;11.17;97.17
43770;BME280;6597;52.218;9.882;2023-03-23T06:40:10;99477.56;;;11.17;97.40
43770;BME280;6597;52.218;9.882;2023-03-23T06:42:40;99480.94;;;11.19;95.84
43770;BME280;6597;52.218;9.882;2023-03-23T06:45:40;99489.28;;;11.26;96.23
43770;BME280;6597;52.218;9.882;2023-03-23T06:48:32;99487.06;;;11.34;95.64
43770;BME280;6597;52.218;9.882;2023-03-23T06:51:00;99492.38;;;11.48;94.58
43770;BME280;6597;52.218;9.882;2023-03-23T06:53:28;99502.81;;;11.64;93.91
43770;BME280;6597;52.218;9.882;2023-03-23T06:55:57;99506.50;;;11.76;92.90
43770;BME280;6597;52.218;9.882;2023-03-23T06:58:24;99505.91;;;11.87;93.02
43770;BME280;6597;52.218;9.882;2023-03-23T07:00:55;99505.44;;;11.94;92.14
43770;BME280;6597;52.218;9.882;2023-03-23T07:03:28;99526.78;;;12.04;92.50
43770;BME280;6597;52.218;9.882;2023-03-23T07:05:57;99512.03;;;12.15;91.73
43770;BME280;6597;52.218;9.882;2023-03-23T07:08:26;99505.81;;;12.17;90.56
43770;BME280;6597;52.218;9.882;2023-03-23T07:10:54;99508.16;;;12.21;91.23
43770;BME280;6597;52.218;9.882;2023-03-23T07:13:27;99507.41;;;12.19;90.99
43770;BME280;6597;52.218;9.882;2023-03-23T07:15:57;99518.13;;;12.16;91.25
43770;BME280;6597;52.218;9.882;2023-03-23T07:18:25;99511.66;;;12.07;90.58
43770;BME280;6597;52.218;9.882;2023-03-23T07:20:53;99514.53;;;12.03;90.77
43770;BME280;6597;52.218;9.882;2023-03-23T07:23:25;99523.38;;;12.02;91.09
43770;BME280;6597;52.218;9.882;2023-03-23T07:26:00;99520.56;;;12.05;90.82
43770;BME280;6597;52.218;9.882;2023-03-23T07:28:34;99521.59;;;12.17;90.07
43770;BME280;6597;52.218;9.882;2023-03-23T07:31:09;99523.75;;;12.24;89.54
43770;BME280;6597;52.218;9.882;2023-03-23T07:33:36;99530.06;;;12.36;89.21
43770;BME280;6597;52.218;9.882;2023-03-23T07:36:05;99526.75;;;12.46;88.20
43770;BME280;6597;52.218;9.882;2023-03-23T07:38:34;99534.38;;;12.51;87.92
43770;BME280;6597;52.218;9.882;2023-03-23T07:41:03;99535.47;;;12.61;86.90
43770;BME280;6597;52.218;9.882;2023-03-23T07:43:30;99534.22;;;12.81;86.92
43770;BME280;6597;52.218;9.882;2023-03-23T07:46:01;99533.63;;;12.90;85.46
43770;BME280;6597;52.218;9.882;2023-03-23T07:48:37;99543.44;;;13.15;85.01
43770;BME280;6597;52.218;9.882;2023-03-23T07:51:05;99532.94;;;13.42;83.43
43770;BME280;6597;52.218;9.882;2023-03-23T07:53:32;99518.28;;;13.63;81.90
43770;BME280;6597;52.218;9.882;2023-03-23T07:56:13;99532.47;;;13.88;79.43
43770;BME280;6597;52.218;9.882;2023-03-23T07:58:50;99525.63;;;14.11;79.32
43770;BME280;6597;52.218;9.882;2023-03-23T08:01:18;99529.13;;;13.98;77.78
43770;BME280;6597;52.218;9.882;2023-03-23T08:04:05;99528.56;;;13.93;79.39
43770;BME280;6597;52.218;9.882;2023-03-23T08:06:51;99528.56;;;13.93;79.12
43770;BME280;6597;52.218;9.882;2023-03-23T08:09:43;99536.25;;;13.96;79.36
43770;BME280;6597;52.218;9.882;2023-03-23T08:12:22;99539.66;;;13.98;78.99
43770;BME280;6597;52.218;9.882;2023-03-23T08:15:05;99541.63;;;13.69;79.44
43770;BME280;6597;52.218;9.882;2023-03-23T08:17:59;99545.75;;;13.74;79.79
43770;BME280;6597;52.218;9.882;2023-03-23T08:20:46;99542.38;;;13.84;79.63
43770;BME280;6597;52.218;9.882;2023-03-23T08:23:25;99542.81;;;13.91;78.11
43770;BME280;6597;52.218;9.882;2023-03-23T08:26:09;99539.84;;;13.95;77.38
43770;BME280;6597;52.218;9.882;2023-03-23T08:28:56;99554.72;;;13.96;78.48
43770;BME280;6597;52.218;9.882;2023-03-23T08:31:52;99555.56;;;13.97;78.22
43770;BME280;6597;52.218;9.882;2023-03-23T08:34:39;99559.25;;;13.82;78.54
43770;BME280;6597;52.218;9.882;2023-03-23T08:37:27;99562.00;;;13.80;78.57
43770;BME280;6597;52.218;9.882;2023-03-23T08:40:12;99555.47;;;13.73;78.39
43770;BME280;6597;52.218;9.882;2023-03-23T08:43:12;99559.03;;;13.72;78.38
43770;BME280;6597;52.218;9.882;2023-03-23T08:46:01;99553.63;;;13.61;78.23
43770;BME280;6597;52.218;9.882;2023-03-23T08:48:50;99554.19;;;13.66;78.72
43770;BME280;6597;52.218;9.882;2023-03-23T08:51:50;99548.72;;;13.69;77.44
43770;BME280;6597;52.218;9.882;2023-03-23T08:54:47;99548.94;;;13.79;78.21
43770;BME280;6597;52.218;9.882;2023-03-23T08:57:46;99556.22;;;13.88;76.89
43770;BME280;6597;52.218;9.882;2023-03-23T09:00:22;99545.97;;;13.83;77.03
43770;BME280;6597;52.218;9.882;2023-03-23T09:03:14;99552.50;;;13.78;77.17
43770;BME280;6597;52.218;9.882;2023-03-23T09:06:03;99552.94;;;13.84;77.06
43770;BME280;6597;52.218;9.882;2023-03-23T09:08:39;99557.78;;;13.90;76.99
43770;BME280;6597;52.218;9.882;2023-03-23T09:11:07;99553.16;;;13.94;77.46
43770;BME280;6597;52.218;9.882;2023-03-23T09:13:35;99547.44;;;13.87;76.16
43770;BME280;6597;52.218;9.882;2023-03-23T09:16:02;99526.44;;;13.73;75.44
43770;BME280;6597;52.218;9.882;2023-03-23T09:18:29;99543.22;;;13.72;75.78
43770;BME280;6597;52.218;9.882;2023-03-23T09:20:58;99548.25;;;13.62;77.06
43770;BME280;6597;52.218;9.882;2023-03-23T09:23:25;99550.69;;;13.65;77.15
43770;BME280;6597;52.218;9.882;2023-03-23T09:25:53;99552.28;;;13.68;77.41
43770;BME280;6597;52.218;9.882;2023-03-23T09:28:20;99552.41;;;13.66;75.79
43770;BME280;6597;52.218;9.882;2023-03-23T09:30:47;99561.00;;;13.56;76.07
43770;BME280;6597;52.218;9.882;2023-03-23T09:33:14;99560.38;;;13.65;77.24
43770;BME280;6597;52.218;9.882;2023-03-23T09:35:41;99571.81;;;13.78;78.30
43770;BME280;6597;52.218;9.882;2023-03-23T09:38:09;99553.88;;;13.83;77.27
43770;BME280;6597;52.218;9.882;2023-03-23T09:40:44;99567.19;;;13.82;76.59
43770;BME280;6597;52.218;9.882;2023-03-23T09:43:33;99572.47;;;13.94;76.28
43770;BME280;6597;52.218;9.882;2023-03-23T09:46:18;99578.91;;;13.90;76.18
43770;BME280;6597;52.218;9.882;2023-03-23T09:48:51;99577.31;;;13.88;75.92
43770;BME280;6597;52.218;9.882;2023-03-23T09:51:28;99569.41;;;13.88;75.89
43770;BME280;6597;52.218;9.882;2023-03-23T09:53:58;99574.81;;;13.99;76.28
43770;BME280;6597;52.218;9.882;2023-03-23T09:56:30;99580.09;;;14.12;75.86
43770;BME280;6597;52.218;9.882;2023-03-23T09:59:01;99587.91;;;14.13;74.98
43770;BME280;6597;52.218;9.882;2023-03-23T10:01:36;99594.34;;;14.22;74.47
43770;BME280;6597;52.218;9.882;2023-03-23T10:04:06;99584.84;;;14.32;74.36
43770;BME280;6597;52.218;9.882;2023-03-23T10:06:33;99592.56;;;14.48;73.65
43770;BME280;6597;52.218;9.882;2023-03-23T10:09:03;99598.78;;;14.72;74.31
43770;BME280;6597;52.218;9.882;2023-03-23T10:11:41;99602.78;;;14.78;72.53
43770;BME280;6597;52.218;9.882;2023-03-23T10:14:21;99606.41;;;14.64;71.84
43770;BME280;6597;52.218;9.882;2023-03-23T10:16:57;99615.38;;;14.61;72.21
43770;BME280;6597;52.218;9.882;2023-03-23T10:19:29;99607.44;;;14.61;73.09
43770;BME280;6597;52.218;9.882;2023-03-23T10:22:03;99612.84;;;14.35;73.20
43770;BME280;6597;52.218;9.882;2023-03-23T10:24:34;99620.31;;;14.28;74.46
43770;BME280;6597;52.218;9.882;2023-03-23T10:27:10;99614.50;;;14.23;74.95
43770;BME280;6597;52.218;9.882;2023-03-23T10:29:45;99613.03;;;14.06;74.68
43770;BME280;6597;52.218;9.882;2023-03-23T10:32:16;99612.06;;;14.07;75.10
43770;BME280;6597;52.218;9.882;2023-03-23T10:34:47;99621.56;;;14.10;75.23
43770;BME280;6597;52.218;9.882;2023-03-23T10:37:18;99622.41;;;14.10;74.41
43770;BME280;6597;52.218;9.882;2023-03-23T10:39:50;99625.16;;;14.09;74.13
43770;BME280;6597;52.218;9.882;2023-03-23T10:42:25;99622.84;;;14.17;74.50
43770;BME280;6597;52.218;9.882;2023-03-23T10:44:55;99619.03;;;14.21;73.88
43770;BME280;6597;52.218;9.882;2023-03-23T10:47:23;99620.94;;;14.19;71.68
43770;BME280;6597;52.218;9.882;2023-03-23T10:49:52;99610.19;;;14.22;71.91
43770;BME280;6597;52.218;9.882;2023-03-23T10:52:29;99622.56;;;14.34;71.85
43770;BME280;6597;52.218;9.882;2023-03-23T10:55:00;99614.94;;;14.42;70.53
43770;BME280;6597;52.218;9.882;2023-03-23T10:57:29;99620.25;;;14.55;70.17
43770;BME280;6597;52.218;9.882;2023-03-23T11:00:04;99614.66;;;15.09;68.28
43770;BME280;6597;52.218;9.882;2023-03-23T11:02:37;99615.53;;;15.70;65.52
43770;BME280;6597;52.218;9.882;2023-03-23T11:05:09;99611.56;;;16.22;63.53
43770;BME280;6597;52.218;9.882;2023-03-23T11:07:40;99602.28;;;16.73;60.09
43770;BME280;6597;52.218;9.882;2023-03-23T11:10:16;99610.53;;;17.25;58.91
43770;BME280;6597;52.218;9.882;2023-03-23T11:12:45;99607.78;;;17.69;59.09
43770;BME280;6597;52.218;9.882;2023-03-23T11:15:28;99601.91;;;17.87;57.90
43770;BME280;6597;52.218;9.882;2023-03-23T11:18:00;99602.56;;;18.00;56.39
43770;BME280;6597;52.218;9.882;2023-03-23T11:20:29;99616.38;;;17.94;54.97
43770;BME280;6597;52.218;9.882;2023-03-23T11:22:56;99607.69;;;18.33;54.60
43770;BME280;6597;52.218;9.882;2023-03-23T11:25:23;99617.38;;;18.44;52.64
43770;BME280;6597;52.218;9.882;2023-03-23T11:27:52;99612.63;;;18.48;54.39
43770;BME280;6597;52.218;9.882;2023-03-23T11:30:24;99617.44;;;18.75;53.08
43770;BME280;6597;52.218;9.882;2023-03-23T11:32:53;99609.53;;;18.43;51.41
43770;BME280;6597;52.218;9.882;2023-03-23T11:35:23;99620.13;;;18.33;52.16
43770;BME280;6597;52.218;9.882;2023-03-23T11:37:53;99615.84;;;18.21;52.58
43770;BME280;6597;52.218;9.882;2023-03-23T11:40:22;99622.16;;;18.71;52.72
43770;BME280;6597;52.218;9.882;2023-03-23T11:42:57;99615.03;;;18.72;50.90
43770;BME280;6597;52.218;9.882;2023-03-23T11:45:32;99604.91;;;18.96;52.29
43770;BME280;6597;52.218;9.882;2023-03-23T11:48:10;99603.66;;;18.90;50.74
43770;BME280;6597;52.218;9.882;2023-03-23T11:50:47;99612.78;;;18.46;51.50
43770;BME280;6597;52.218;9.882;2023-03-23T11:53:25;99611.75;;;18.17;51.14
43770;BME280;6597;52.218;9.882;2023-03-23T11:56:01;99608.13;;;17.97;52.69
43770;BME280;6597;52.218;9.882;2023-03-23T11:58:31;99600.66;;;17.70;52.78
43770;BME280;6597;52.218;9.882;2023-03-23T12:01:04;99605.34;;;17.23;54.73
43770;BME280;6597;52.218;9.882;2023-03-23T12:03:51;99607.06;;;17.13;54.22
43770;BME280;6597;52.218;9.882;2023-03-23T12:06:26;99592.19;;;17.22;55.53
43770;BME280;6597;52.218;9.882;2023-03-23T12:09:06;99600.94;;;16.90;54.37
43770;BME280;6597;52.218;9.882;2023-03-23T12:11:39;99607.53;;;16.40;56.89
43770;BME280;6597;52.218;9.882;2023-03-23T12:14:14;99596.75;;;15.97;58.41
43770;BME280;6597;52.218;9.882;2023-03-23T12:16:57;99593.31;;;15.83;59.30
43770;BME280;6597;52.218;9.882;2023-03-23T12:19:31;99604.59;;;15.74;60.10
43770;BME280;6597;52.218;9.882;2023-03-23T12:22:06;99594.94;;;15.62;60.96
43770;BME280;6597;52.218;9.882;2023-03-23T12:24:45;99616.19;;;15.61;60.83
43770;BME280;6597;52.218;9.882;2023-03-23T12:27:21;99621.53;;;15.72;60.16
43770;BME280;6597;52.218;9.882;2023-03-23T12:30:15;99623.41;;;15.46;59.09
43770;BME280;6597;52.218;9.882;2023-03-23T12:32:56;99636.09;;;15.30;60.80
43770;BME280;6597;52.218;9.882;2023-03-23T12:35:33;99644.47;;;15.11;63.03
43770;BME280;6597;52.218;9.882;2023-03-23T12:38:16;99671.16;;;14.82;65.68
43770;BME280;6597;52.218;9.882;2023-03-23T12:40:57;99655.63;;;14.52;68.23
43770;BME280;6597;52.218;9.882;2023-03-23T12:43:30;99665.31;;;14.39;69.69
43770;BME280;6597;52.218;9.882;2023-03-23T12:46:15;99660.19;;;14.50;68.06
43770;BME280;6597;52.218;9.882;2023-03-23T12:48:47;99668.00;;;14.52;68.26
43770;BME280;6597;52.218;9.882;2023-03-23T12:51:21;99670.38;;;14.42;69.64
43770;BME280;6597;52.218;9.882;2023-03-23T12:53:56;99693.47;;;14.13;72.26
43770;BME280;6597;52.218;9.882;2023-03-23T12:56:29;99688.59;;;13.67;78.34
43770;BME280;6597;52.218;9.882;2023-03-23T12:59:03;99696.28;;;12.87;83.92
43770;BME280;6597;52.218;9.882;2023-03-23T13:01:34;99696.34;;;12.57;87.06
43770;BME280;6597;52.218;9.882;2023-03-23T13:04:08;99701.13;;;12.36;88.83
43770;BME280;6597;52.218;9.882;2023-03-23T13:06:38;99704.94;;;12.30;90.30
43770;BME280;6597;52.218;9.882;2023-03-23T13:09:11;99711.13;;;12.29;92.80
43770;BME280;6597;52.218;9.882;2023-03-23T13:11:41;99709.59;;;12.41;91.71
43770;BME280;6597;52.218;9.882;2023-03-23T13:14:22;99712.78;;;12.46;88.25
43770;BME280;6597;52.218;9.882;2023-03-23T13:16:58;99710.34;;;12.43;85.34
43770;BME280;6597;52.218;9.882;2023-03-23T13:19:34;99696.53;;;12.39;83.09
43770;BME280;6597;52.218;9.882;2023-03-23T13:22:06;99691.00;;;12.58;82.57
43770;BME280;6597;52.218;9.882;2023-03-23T13:24:46;99707.94;;;12.97;79.40
43770;BME280;6597;52.218;9.882;2023-03-23T13:27:15;99693.38;;;13.20;77.12
43770;BME280;6597;52.218;9.882;2023-03-23T13:29:44;99699.84;;;13.28;73.70
43770;BME280;6597;52.218;9.882;2023-03-23T13:32:17;99697.03;;;13.31;74.53
43770;BME280;6597;52.218;9.882;2023-03-23T13:34:46;99699.19;;;13.39;74.06
43770;BME280;6597;52.218;9.882;2023-03-23T13:37:20;99699.25;;;13.52;73.09
43770;BME280;6597;52.218;9.882;2023-03-23T13:39:50;99704.47;;;13.39;71.51
43770;BME280;6597;52.218;9.882;2023-03-23T13:42:20;99706.63;;;13.32;72.08
43770;BME280;6597;52.218;9.882;2023-03-23T13:45:19;99717.47;;;13.28;71.80